sensor_id;sensor_type;location;lat;lon;timestamp;pressure;altitude;pressure_sealevel;temperature;humidity
61292;BME280;47165;42.664;23.368;2023-05-23T00:00:41;94890.25;;;15.05;70.35
61292;BME280;47165;42.664;23.368;2023-05-23T00:03:06;94896.44;;;15.04;70.66
61292;BME280;47165;42.664;23.368;2023-05-23T00:05:32;94900.16;;;15.02;70.11
61292;BME280;47165;42.664;23.368;2023-05-23T00:07:59;94894.28;;;14.98;70.13
61292;BME280;47165;42.664;23.368;2023-05-23T00:10:25;94893.31;;;14.88;70.17
61292;BME280;47165;42.664;23.368;2023-05-23T00:12:51;94891.63;;;14.76;70.19
61292;BME280;47165;42.664;23.368;2023-05-23T00:15:16;94888.63;;;14.69;70.42
61292;BME280;47165;42.664;23.368;2023-05-23T00:17:42;94891.59;;;14.64;70.30
61292;BME280;47165;42.664;23.368;2023-05-23T00:20:09;94891.59;;;14.64;70.38
61292;BME280;47165;42.664;23.368;2023-05-23T00:22:36;94889.59;;;14.55;70.06
61292;BME280;47165;42.664;23.368;2023-05-23T00:25:05;94892.06;;;14.58;69.87
61292;BME280;47165;42.664;23.368;2023-05-23T00:27:30;94893.97;;;14.56;69.06
61292;BME280;47165;42.664;23.368;2023-05-23T00:29:56;94889.63;;;14.31;68.79
61292;BME280;47165;42.664;23.368;2023-05-23T00:32:21;94888.03;;;14.17;69.37
61292;BME280;47165;42.664;23.368;2023-05-23T00:34:46;94895.69;;;14.20;69.62
61292;BME280;47165;42.664;23.368;2023-05-23T00:37:12;94893.44;;;14.27;69.94
61292;BME280;47165;42.664;23.368;2023-05-23T00:39:38;94885.81;;;14.35;69.94
61292;BME280;47165;42.664;23.368;2023-05-23T00:42:04;94890.25;;;14.35;69.71
61292;BME280;47165;42.664;23.368;2023-05-23T00:44:30;94876.22;;;14.23;69.91
61292;BME280;47165;42.664;23.368;2023-05-23T00:46:56;94891.50;;;14.42;69.09
61292;BME280;47165;42.664;23.368;2023-05-23T00:49:23;94888.25;;;14.38;69.70
61292;BME280;47165;42.664;23.368;2023-05-23T00:51:50;94887.41;;;14.38;70.10
61292;BME280;47165;42.664;23.368;2023-05-23T00:54:27;94890.31;;;14.46;69.53
61292;BME280;47165;42.664;23.368;2023-05-23T00:56:53;94889.00;;;14.52;69.11
61292;BME280;47165;42.664;23.368;2023-05-23T00:59:20;94880.69;;;14.58;68.63
61292;BME280;47165;42.664;23.368;2023-05-23T01:01:47;94879.44;;;14.51;68.35
61292;BME280;47165;42.664;23.368;2023-05-23T01:04:14;94892.47;;;14.52;68.59
61292;BME280;47165;42.664;23.368;2023-05-23T01:06:40;94889.34;;;14.47;68.93
61292;BME280;47165;42.664;23.368;2023-05-23T01:09:12;94896.94;;;14.39;68.59
61292;BME280;47165;42.664;23.368;2023-05-23T01:11:56;94881.03;;;14.29;68.27
61292;BME280;47165;42.664;23.368;2023-05-23T01:14:30;94892.38;;;14.29;68.83
61292;BME280;47165;42.664;23.368;2023-05-23T01:17:00;94892.59;;;14.26;68.33
61292;BME280;47165;42.664;23.368;2023-05-23T01:21:59;94887.44;;;14.25;68.49
61292;BME280;47165;42.664;23.368;2023-05-23T01:24:35;94887.34;;;14.26;68.38
61292;BME280;47165;42.664;23.368;2023-05-23T01:27:07;94886.00;;;14.21;68.77
61292;BME280;47165;42.664;23.368;2023-05-23T01:29:46;94893.66;;;14.24;68.67
61292;BME280;47165;42.664;23.368;2023-05-23T01:32:13;94888.78;;;14.31;67.64
61292;BME280;47165;42.664;23.368;2023-05-23T01:34:40;94895.94;;;14.28;67.58
61292;BME280;47165;42.664;23.368;2023-05-23T01:37:08;94897.47;;;14.20;67.94
61292;BME280;47165;42.664;23.368;2023-05-23T01:39:35;94897.56;;;14.18;67.95
61292;BME280;47165;42.664;23.368;2023-05-23T01:42:00;94889.81;;;14.17;68.07
61292;BME280;47165;42.664;23.368;2023-05-23T01:44:26;94885.41;;;14.17;68.26
61292;BME280;47165;42.664;23.368;2023-05-23T01:46:51;94882.78;;;14.17;68.57
61292;BME280;47165;42.664;23.368;2023-05-23T01:49:17;94881.09;;;14.16;67.95
61292;BME280;47165;42.664;23.368;2023-05-23T01:51:42;94882.06;;;14.15;68.15
61292;BME280;47165;42.664;23.368;2023-05-23T01:54:08;94873.47;;;14.13;67.92
61292;BME280;47165;42.664;23.368;2023-05-23T01:56:34;94876.28;;;14.10;67.59
61292;BME280;47165;42.664;23.368;2023-05-23T01:58:59;94874.06;;;13.93;68.26
61292;BME280;47165;42.664;23.368;2023-05-23T02:01:26;94877.84;;;13.88;67.88
61292;BME280;47165;42.664;23.368;2023-05-23T02:03:51;94879.53;;;13.89;67.95
61292;BME280;47165;42.664;23.368;2023-05-23T02:06:17;94884.94;;;13.99;68.22
61292;BME280;47165;42.664;23.368;2023-05-23T02:08:42;94877.84;;;13.88;67.98
61292;BME280;47165;42.664;23.368;2023-05-23T02:11:08;94878.78;;;13.87;68.21
61292;BME280;47165;42.664;23.368;2023-05-23T02:13:34;94881.66;;;13.84;68.42
61292;BME280;47165;42.664;23.368;2023-05-23T02:16:00;94881.22;;;13.91;68.00
61292;BME280;47165;42.664;23.368;2023-05-23T02:18:25;94876.59;;;13.81;68.43
61292;BME280;47165;42.664;23.368;2023-05-23T02:20:53;94870.63;;;13.79;68.67
61292;BME280;47165;42.664;23.368;2023-05-23T02:23:20;94878.25;;;13.95;68.17
61292;BME280;47165;42.664;23.368;2023-05-23T02:25:45;94876.72;;;14.04;67.55
61292;BME280;47165;42.664;23.368;2023-05-23T02:28:11;94874.78;;;13.95;68.04
61292;BME280;47165;42.664;23.368;2023-05-23T02:30:37;94872.03;;;13.96;67.98
61292;BME280;47165;42.664;23.368;2023-05-23T02:33:05;94869.69;;;14.04;68.32
61292;BME280;47165;42.664;23.368;2023-05-23T02:35:32;94874.00;;;14.05;68.11
61292;BME280;47165;42.664;23.368;2023-05-23T02:37:58;94874.28;;;13.89;68.45
61292;BME280;47165;42.664;23.368;2023-05-23T02:40:23;94873.09;;;13.94;69.66
61292;BME280;47165;42.664;23.368;2023-05-23T02:42:48;94873.63;;;13.99;71.16
61292;BME280;47165;42.664;23.368;2023-05-23T02:45:16;94871.47;;;14.04;70.21
61292;BME280;47165;42.664;23.368;2023-05-23T02:47:42;94864.88;;;13.98;69.78
61292;BME280;47165;42.664;23.368;2023-05-23T02:50:07;94866.69;;;13.98;69.49
61292;BME280;47165;42.664;23.368;2023-05-23T02:52:33;94868.94;;;14.15;69.34
61292;BME280;47165;42.664;23.368;2023-05-23T02:54:58;94867.66;;;13.97;68.67
61292;BME280;47165;42.664;23.368;2023-05-23T02:57:24;94863.13;;;13.99;68.81
61292;BME280;47165;42.664;23.368;2023-05-23T02:59:50;94867.34;;;13.88;69.78
61292;BME280;47165;42.664;23.368;2023-05-23T03:02:15;94870.09;;;13.87;69.22
61292;BME280;47165;42.664;23.368;2023-05-23T03:04:40;94863.38;;;13.83;68.83
61292;BME280;47165;42.664;23.368;2023-05-23T03:07:06;94866.22;;;13.80;68.39
61292;BME280;47165;42.664;23.368;2023-05-23T03:09:32;94865.31;;;13.68;68.81
61292;BME280;47165;42.664;23.368;2023-05-23T03:11:57;94858.69;;;13.75;68.24
61292;BME280;47165;42.664;23.368;2023-05-23T03:14:23;94860.69;;;13.72;68.21
61292;BME280;47165;42.664;23.368;2023-05-23T03:16:48;94857.50;;;13.79;67.95
61292;BME280;47165;42.664;23.368;2023-05-23T03:19:13;94870.34;;;13.71;68.09
61292;BME280;47165;42.664;23.368;2023-05-23T03:21:39;94862.50;;;13.58;68.14
61292;BME280;47165;42.664;23.368;2023-05-23T03:24:05;94862.56;;;13.69;68.28
61292;BME280;47165;42.664;23.368;2023-05-23T03:26:31;94870.06;;;13.63;68.11
61292;BME280;47165;42.664;23.368;2023-05-23T03:28:56;94871.00;;;13.62;68.27
61292;BME280;47165;42.664;23.368;2023-05-23T03:31:22;94869.56;;;13.58;68.22
61292;BME280;47165;42.664;23.368;2023-05-23T03:33:47;94878.59;;;13.54;68.54
61292;BME280;47165;42.664;23.368;2023-05-23T03:36:12;94878.16;;;13.60;68.11
61292;BME280;47165;42.664;23.368;2023-05-23T03:38:38;94882.09;;;13.65;67.90
61292;BME280;47165;42.664;23.368;2023-05-23T03:41:03;94885.06;;;13.61;67.41
61292;BME280;47165;42.664;23.368;2023-05-23T03:43:29;94893.66;;;13.63;67.85
61292;BME280;47165;42.664;23.368;2023-05-23T03:45:54;94898.47;;;13.69;67.90
61292;BME280;47165;42.664;23.368;2023-05-23T03:48:20;94896.09;;;13.66;67.88
61292;BME280;47165;42.664;23.368;2023-05-23T03:50:45;94888.75;;;13.58;67.79
61292;BME280;47165;42.664;23.368;2023-05-23T03:53:11;94888.03;;;13.56;67.82
61292;BME280;47165;42.664;23.368;2023-05-23T03:55:37;94881.31;;;13.52;67.98
61292;BME280;47165;42.664;23.368;2023-05-23T03:58:03;94898.50;;;13.56;67.88
61292;BME280;47165;42.664;23.368;2023-05-23T04:00:28;94900.50;;;13.53;67.80
61292;BME280;47165;42.664;23.368;2023-05-23T04:02:54;94904.09;;;13.52;67.94
61292;BME280;47165;42.664;23.368;2023-05-23T04:05:20;94906.28;;;13.58;67.78
61292;BME280;47165;42.664;23.368;2023-05-23T04:07:45;94904.50;;;13.58;67.97
61292;BME280;47165;42.664;23.368;2023-05-23T04:10:11;94894.09;;;13.57;68.02
61292;BME280;47165;42.664;23.368;2023-05-23T04:12:37;94883.91;;;13.65;68.00
61292;BME280;47165;42.664;23.368;2023-05-23T04:15:06;94889.38;;;13.62;69.04
61292;BME280;47165;42.664;23.368;2023-05-23T04:17:31;94887.50;;;13.64;68.78
61292;BME280;47165;42.664;23.368;2023-05-23T04:19:57;94895.53;;;13.74;68.19
61292;BME280;47165;42.664;23.368;2023-05-23T04:22:23;94892.78;;;13.75;68.19
61292;BME280;47165;42.664;23.368;2023-05-23T04:24:48;94892.78;;;13.75;68.02
61292;BME280;47165;42.664;23.368;2023-05-23T04:27:14;94904.34;;;13.73;68.25
61292;BME280;47165;42.664;23.368;2023-05-23T04:29:39;94895.22;;;13.78;67.93
61292;BME280;47165;42.664;23.368;2023-05-23T04:32:05;94901.06;;;13.82;69.37
61292;BME280;47165;42.664;23.368;2023-05-23T04:34:31;94907.66;;;13.87;69.88
61292;BME280;47165;42.664;23.368;2023-05-23T04:37:00;94901.31;;;14.03;69.99
61292;BME280;47165;42.664;23.368;2023-05-23T04:39:29;94901.72;;;14.09;70.62
61292;BME280;47165;42.664;23.368;2023-05-23T04:41:55;94898.31;;;14.20;70.77
61292;BME280;47165;42.664;23.368;2023-05-23T04:44:21;94898.91;;;14.24;70.55
61292;BME280;47165;42.664;23.368;2023-05-23T04:46:47;94905.97;;;14.23;71.56
61292;BME280;47165;42.664;23.368;2023-05-23T04:49:12;94911.50;;;14.32;71.55
61292;BME280;47165;42.664;23.368;2023-05-23T04:51:38;94907.69;;;14.36;71.97
61292;BME280;47165;42.664;23.368;2023-05-23T04:54:04;94907.63;;;14.48;72.32
61292;BME280;47165;42.664;23.368;2023-05-23T04:56:29;94913.72;;;14.49;71.71
61292;BME280;47165;42.664;23.368;2023-05-23T04:58:56;94913.25;;;14.55;72.09
61292;BME280;47165;42.664;23.368;2023-05-23T05:01:22;94915.81;;;14.57;72.18
61292;BME280;47165;42.664;23.368;2023-05-23T05:03:51;94920.31;;;14.31;72.48
61292;BME280;47165;42.664;23.368;2023-05-23T05:06:17;94912.16;;;14.22;73.01
61292;BME280;47165;42.664;23.368;2023-05-23T05:08:42;94923.47;;;14.36;72.30
61292;BME280;47165;42.664;23.368;2023-05-23T05:11:08;94932.19;;;14.47;72.38
61292;BME280;47165;42.664;23.368;2023-05-23T05:13:34;94930.50;;;14.59;72.70
61292;BME280;47165;42.664;23.368;2023-05-23T05:16:00;94931.34;;;14.60;72.78
61292;BME280;47165;42.664;23.368;2023-05-23T05:18:25;94930.78;;;14.67;72.99
61292;BME280;47165;42.664;23.368;2023-05-23T05:20:51;94932.00;;;14.75;72.93
61292;BME280;47165;42.664;23.368;2023-05-23T05:23:16;94930.81;;;14.79;72.61
61292;BME280;47165;42.664;23.368;2023-05-23T05:25:42;94914.34;;;14.77;72.51
61292;BME280;47165;42.664;23.368;2023-05-23T05:28:07;94936.72;;;14.94;72.00
61292;BME280;47165;42.664;23.368;2023-05-23T05:30:33;94923.22;;;14.98;72.60
61292;BME280;47165;42.664;23.368;2023-05-23T05:33:03;94925.38;;;15.04;72.07
61292;BME280;47165;42.664;23.368;2023-05-23T05:35:33;94927.91;;;15.06;72.68
61292;BME280;47165;42.664;23.368;2023-05-23T05:37:59;94938.56;;;15.16;72.26
61292;BME280;47165;42.664;23.368;2023-05-23T05:40:25;94934.50;;;15.23;72.28
61292;BME280;47165;42.664;23.368;2023-05-23T05:42:50;94930.69;;;15.27;72.00
61292;BME280;47165;42.664;23.368;2023-05-23T05:45:16;94933.19;;;15.28;71.38
61292;BME280;47165;42.664;23.368;2023-05-23T05:47:41;94929.97;;;15.36;71.62
61292;BME280;47165;42.664;23.368;2023-05-23T05:50:07;94919.69;;;15.33;70.26
61292;BME280;47165;42.664;23.368;2023-05-23T05:52:33;94927.34;;;15.47;69.70
61292;BME280;47165;42.664;23.368;2023-05-23T05:55:03;94939.56;;;15.48;70.06
61292;BME280;47165;42.664;23.368;2023-05-23T05:57:29;94933.56;;;15.58;69.41
61292;BME280;47165;42.664;23.368;2023-05-23T05:59:55;94932.97;;;15.65;69.17
61292;BME280;47165;42.664;23.368;2023-05-23T06:02:20;94923.66;;;15.61;69.35
61292;BME280;47165;42.664;23.368;2023-05-23T06:04:46;94935.59;;;15.43;70.26
61292;BME280;47165;42.664;23.368;2023-05-23T06:07:11;94927.00;;;15.63;70.05
61292;BME280;47165;42.664;23.368;2023-05-23T06:09:37;94929.31;;;15.79;70.05
61292;BME280;47165;42.664;23.368;2023-05-23T06:12:02;94928.09;;;15.83;70.44
61292;BME280;47165;42.664;23.368;2023-05-23T06:14:27;94937.66;;;15.96;69.98
61292;BME280;47165;42.664;23.368;2023-05-23T06:16:53;94931.31;;;15.98;69.83
61292;BME280;47165;42.664;23.368;2023-05-23T06:19:18;94934.88;;;16.08;69.97
61292;BME280;47165;42.664;23.368;2023-05-23T06:21:44;94933.41;;;16.16;69.54
61292;BME280;47165;42.664;23.368;2023-05-23T06:24:09;94938.78;;;16.25;69.01
61292;BME280;47165;42.664;23.368;2023-05-23T06:26:34;94933.41;;;16.27;68.83
61292;BME280;47165;42.664;23.368;2023-05-23T06:29:02;94922.25;;;16.35;69.11
61292;BME280;47165;42.664;23.368;2023-05-23T06:31:27;94934.44;;;16.36;68.84
61292;BME280;47165;42.664;23.368;2023-05-23T06:33:52;94941.53;;;16.35;68.59
61292;BME280;47165;42.664;23.368;2023-05-23T06:36:18;94938.31;;;16.32;68.33
61292;BME280;47165;42.664;23.368;2023-05-23T06:38:44;94938.31;;;16.32;68.55
61292;BME280;47165;42.664;23.368;2023-05-23T06:41:09;94928.72;;;16.31;67.96
61292;BME280;47165;42.664;23.368;2023-05-23T06:43:34;94930.88;;;16.25;67.86
61292;BME280;47165;42.664;23.368;2023-05-23T06:46:00;94933.41;;;16.27;67.92
61292;BME280;47165;42.664;23.368;2023-05-23T06:48:25;94927.16;;;16.28;68.03
61292;BME280;47165;42.664;23.368;2023-05-23T06:50:51;94926.34;;;16.27;68.39
61292;BME280;47165;42.664;23.368;2023-05-23T06:53:16;94920.81;;;16.31;68.66
61292;BME280;47165;42.664;23.368;2023-05-23T06:55:42;94921.78;;;16.29;68.72
61292;BME280;47165;42.664;23.368;2023-05-23T06:58:08;94918.66;;;16.36;68.90
61292;BME280;47165;42.664;23.368;2023-05-23T07:00:33;94918.75;;;16.45;68.33
61292;BME280;47165;42.664;23.368;2023-05-23T07:02:59;94911.78;;;16.44;68.05
61292;BME280;47165;42.664;23.368;2023-05-23T07:05:27;94918.34;;;16.50;68.18
61292;BME280;47165;42.664;23.368;2023-05-23T07:07:53;94914.50;;;16.54;68.29
61292;BME280;47165;42.664;23.368;2023-05-23T07:10:18;94920.25;;;16.59;68.90
61292;BME280;47165;42.664;23.368;2023-05-23T07:12:45;94910.84;;;16.66;68.99
61292;BME280;47165;42.664;23.368;2023-05-23T07:15:11;94906.88;;;16.72;68.87
61292;BME280;47165;42.664;23.368;2023-05-23T07:17:37;94910.34;;;16.73;69.18
61292;BME280;47165;42.664;23.368;2023-05-23T07:20:03;94900.97;;;16.80;69.48
61292;BME280;47165;42.664;23.368;2023-05-23T07:29:12;94894.19;;;16.98;69.68
61292;BME280;47165;42.664;23.368;2023-05-23T07:31:37;94890.19;;;17.04;69.79
61292;BME280;47165;42.664;23.368;2023-05-23T07:34:02;94887.38;;;17.17;69.47
61292;BME280;47165;42.664;23.368;2023-05-23T07:36:28;94887.81;;;17.22;69.17
61292;BME280;47165;42.664;23.368;2023-05-23T07:38:58;94887.41;;;17.26;69.69
61292;BME280;47165;42.664;23.368;2023-05-23T07:41:23;94882.69;;;17.30;68.87
61292;BME280;47165;42.664;23.368;2023-05-23T07:43:49;94875.94;;;17.37;69.13
61292;BME280;47165;42.664;23.368;2023-05-23T07:46:15;94873.03;;;17.40;68.82
61292;BME280;47165;42.664;23.368;2023-05-23T07:48:40;94886.97;;;17.52;68.69
61292;BME280;47165;42.664;23.368;2023-05-23T07:51:06;94873.94;;;17.60;68.56
61292;BME280;47165;42.664;23.368;2023-05-23T07:53:31;94883.84;;;17.68;69.08
61292;BME280;47165;42.664;23.368;2023-05-23T07:55:56;94885.97;;;17.74;68.99
61292;BME280;47165;42.664;23.368;2023-05-23T07:58:22;94882.34;;;17.75;68.19
61292;BME280;47165;42.664;23.368;2023-05-23T08:00:47;94881.09;;;17.79;69.19
61292;BME280;47165;42.664;23.368;2023-05-23T08:03:13;94884.06;;;17.86;69.63
61292;BME280;47165;42.664;23.368;2023-05-23T08:05:38;94889.38;;;17.96;69.41
61292;BME280;47165;42.664;23.368;2023-05-23T08:08:04;94880.66;;;18.05;68.50
61292;BME280;47165;42.664;23.368;2023-05-23T08:10:29;94873.84;;;18.12;68.33
61292;BME280;47165;42.664;23.368;2023-05-23T08:12:54;94871.34;;;18.20;68.83
61292;BME280;47165;42.664;23.368;2023-05-23T08:15:20;94873.03;;;18.31;68.60
61292;BME280;47165;42.664;23.368;2023-05-23T08:17:47;94874.97;;;18.39;68.48
61292;BME280;47165;42.664;23.368;2023-05-23T08:20:13;94871.91;;;18.43;68.01
61292;BME280;47165;42.664;23.368;2023-05-23T08:22:39;94867.19;;;18.47;67.96
61292;BME280;47165;42.664;23.368;2023-05-23T08:25:05;94869.72;;;18.58;68.55
61292;BME280;47165;42.664;23.368;2023-05-23T08:27:30;94872.06;;;18.71;68.36
61292;BME280;47165;42.664;23.368;2023-05-23T08:29:56;94878.91;;;18.83;67.72
61292;BME280;47165;42.664;23.368;2023-05-23T08:32:22;94863.03;;;18.93;67.48
61292;BME280;47165;42.664;23.368;2023-05-23T08:34:47;94871.78;;;19.03;66.86
61292;BME280;47165;42.664;23.368;2023-05-23T08:37:13;94866.31;;;19.05;66.65
61292;BME280;47165;42.664;23.368;2023-05-23T08:39:39;94861.72;;;19.17;66.66
61292;BME280;47165;42.664;23.368;2023-05-23T08:42:04;94855.72;;;19.24;67.00
61292;BME280;47165;42.664;23.368;2023-05-23T08:44:30;94859.41;;;19.41;65.99
61292;BME280;47165;42.664;23.368;2023-05-23T08:46:56;94854.47;;;19.56;66.23
61292;BME280;47165;42.664;23.368;2023-05-23T08:49:26;94857.81;;;19.58;64.09
61292;BME280;47165;42.664;23.368;2023-05-23T08:51:55;94853.72;;;19.74;64.85
61292;BME280;47165;42.664;23.368;2023-05-23T08:54:23;94856.34;;;19.83;64.49
61292;BME280;47165;42.664;23.368;2023-05-23T08:56:49;94857.41;;;19.90;64.39
61292;BME280;47165;42.664;23.368;2023-05-23T08:59:16;94845.06;;;19.99;64.98
61292;BME280;47165;42.664;23.368;2023-05-23T09:01:43;94852.84;;;20.10;64.33
61292;BME280;47165;42.664;23.368;2023-05-23T09:04:11;94851.63;;;20.23;64.11
61292;BME280;47165;42.664;23.368;2023-05-23T09:06:36;94848.25;;;20.30;63.56
61292;BME280;47165;42.664;23.368;2023-05-23T09:09:01;94846.94;;;20.35;63.89
61292;BME280;47165;42.664;23.368;2023-05-23T09:11:28;94842.56;;;20.43;59.61
61292;BME280;47165;42.664;23.368;2023-05-23T09:13:54;94840.03;;;20.42;59.12
61292;BME280;47165;42.664;23.368;2023-05-23T09:16:20;94837.63;;;20.66;58.72
61292;BME280;47165;42.664;23.368;2023-05-23T09:18:45;94839.75;;;20.81;57.36
61292;BME280;47165;42.664;23.368;2023-05-23T09:21:12;94844.63;;;20.94;58.02
61292;BME280;47165;42.664;23.368;2023-05-23T09:23:40;94829.44;;;20.78;50.33
61292;BME280;47165;42.664;23.368;2023-05-23T09:26:10;94829.31;;;21.05;50.43
61292;BME280;47165;42.664;23.368;2023-05-23T09:28:38;94836.22;;;21.24;52.52
61292;BME280;47165;42.664;23.368;2023-05-23T09:31:05;94833.84;;;21.39;54.09
61292;BME280;47165;42.664;23.368;2023-05-23T09:33:49;94825.59;;;21.50;54.39
61292;BME280;47165;42.664;23.368;2023-05-23T09:36:15;94823.88;;;21.41;46.22
61292;BME280;47165;42.664;23.368;2023-05-23T09:38:43;94818.72;;;21.40;46.42
61292;BME280;47165;42.664;23.368;2023-05-23T09:41:09;94816.69;;;21.60;48.42
61292;BME280;47165;42.664;23.368;2023-05-23T09:43:39;94823.06;;;21.75;49.09
61292;BME280;47165;42.664;23.368;2023-05-23T09:46:11;94818.13;;;21.88;48.03
61292;BME280;47165;42.664;23.368;2023-05-23T09:48:37;94817.75;;;21.83;46.12
61292;BME280;47165;42.664;23.368;2023-05-23T09:51:04;94802.91;;;21.64;43.30
61292;BME280;47165;42.664;23.368;2023-05-23T09:53:30;94816.63;;;21.94;46.01
61292;BME280;47165;42.664;23.368;2023-05-23T09:55:57;94809.19;;;22.06;43.23
61292;BME280;47165;42.664;23.368;2023-05-23T09:58:25;94809.28;;;22.30;46.66
61292;BME280;47165;42.664;23.368;2023-05-23T10:00:52;94804.31;;;22.44;43.62
61292;BME280;47165;42.664;23.368;2023-05-23T10:03:22;94805.81;;;22.63;45.09
61292;BME280;47165;42.664;23.368;2023-05-23T10:05:50;94800.31;;;22.56;43.78
61292;BME280;47165;42.664;23.368;2023-05-23T10:08:21;94790.81;;;22.70;41.96
61292;BME280;47165;42.664;23.368;2023-05-23T10:13:26;94803.66;;;23.07;41.95
61292;BME280;47165;42.664;23.368;2023-05-23T10:16:01;94793.13;;;23.22;46.14
61292;BME280;47165;42.664;23.368;2023-05-23T10:18:34;94800.59;;;23.27;43.66
61292;BME280;47165;42.664;23.368;2023-05-23T10:21:06;94797.72;;;23.45;42.63
61292;BME280;47165;42.664;23.368;2023-05-23T10:23:34;94781.75;;;23.45;39.44
61292;BME280;47165;42.664;23.368;2023-05-23T10:26:02;94793.66;;;23.18;39.88
61292;BME280;47165;42.664;23.368;2023-05-23T10:28:29;94783.38;;;23.46;42.03
61292;BME280;47165;42.664;23.368;2023-05-23T10:30:55;94777.78;;;23.72;44.34
61292;BME280;47165;42.664;23.368;2023-05-23T10:33:22;94770.44;;;23.74;40.46
61292;BME280;47165;42.664;23.368;2023-05-23T10:36:13;94779.63;;;23.80;39.57
61292;BME280;47165;42.664;23.368;2023-05-23T10:38:50;94777.78;;;23.80;42.17
61292;BME280;47165;42.664;23.368;2023-05-23T10:44:06;94769.56;;;23.90;38.52
61292;BME280;47165;42.664;23.368;2023-05-23T10:46:56;94767.41;;;24.17;38.28
61292;BME280;47165;42.664;23.368;2023-05-23T10:49:41;94768.25;;;24.40;38.67
61292;BME280;47165;42.664;23.368;2023-05-23T10:52:09;94757.78;;;24.07;34.23
61292;BME280;47165;42.664;23.368;2023-05-23T10:54:41;94763.56;;;24.19;35.38
61292;BME280;47165;42.664;23.368;2023-05-23T10:57:09;94759.03;;;24.51;35.29
61292;BME280;47165;42.664;23.368;2023-05-23T10:59:36;94754.97;;;24.78;35.76
61292;BME280;47165;42.664;23.368;2023-05-23T11:02:03;94749.06;;;24.83;36.26
61292;BME280;47165;42.664;23.368;2023-05-23T11:04:31;94754.78;;;24.80;35.12
61292;BME280;47165;42.664;23.368;2023-05-23T11:06:57;94757.94;;;24.98;37.62
61292;BME280;47165;42.664;23.368;2023-05-23T11:09:22;94748.41;;;25.34;37.04
61292;BME280;47165;42.664;23.368;2023-05-23T11:14:18;94745.78;;;25.85;35.78
61292;BME280;47165;42.664;23.368;2023-05-23T11:16:44;94735.44;;;25.82;32.53
61292;BME280;47165;42.664;23.368;2023-05-23T11:19:20;94742.97;;;26.08;35.55
61292;BME280;47165;42.664;23.368;2023-05-23T11:21:55;94745.69;;;26.15;33.67
61292;BME280;47165;42.664;23.368;2023-05-23T11:24:22;94740.94;;;26.10;31.40
61292;BME280;47165;42.664;23.368;2023-05-23T11:26:57;94730.84;;;25.91;31.20
61292;BME280;47165;42.664;23.368;2023-05-23T11:29:26;94735.97;;;26.07;33.69
61292;BME280;47165;42.664;23.368;2023-05-23T11:31:54;94739.97;;;25.81;34.15
61292;BME280;47165;42.664;23.368;2023-05-23T11:34:20;94726.34;;;26.13;32.16
61292;BME280;47165;42.664;23.368;2023-05-23T11:36:46;94732.78;;;26.61;33.08
61292;BME280;47165;42.664;23.368;2023-05-23T11:39:12;94729.75;;;26.93;33.02
61292;BME280;47165;42.664;23.368;2023-05-23T11:41:38;94721.41;;;27.09;30.86
61292;BME280;47165;42.664;23.368;2023-05-23T11:44:11;94718.53;;;27.10;32.81
61292;BME280;47165;42.664;23.368;2023-05-23T11:46:38;94723.88;;;27.39;30.04
61292;BME280;47165;42.664;23.368;2023-05-23T11:49:09;94708.13;;;27.64;29.76
61292;BME280;47165;42.664;23.368;2023-05-23T11:51:35;94718.78;;;27.92;30.93
61292;BME280;47165;42.664;23.368;2023-05-23T11:54:01;94713.06;;;28.15;31.91
61292;BME280;47165;42.664;23.368;2023-05-23T11:56:26;94720.97;;;27.75;29.90
61292;BME280;47165;42.664;23.368;2023-05-23T11:58:56;94710.53;;;27.94;29.93
61292;BME280;47165;42.664;23.368;2023-05-23T12:01:27;94706.53;;;28.51;29.24
61292;BME280;47165;42.664;23.368;2023-05-23T12:03:55;94701.53;;;29.08;28.74
61292;BME280;47165;42.664;23.368;2023-05-23T12:06:22;94708.41;;;28.57;27.71
61292;BME280;47165;42.664;23.368;2023-05-23T12:08:50;94694.06;;;29.10;27.79
61292;BME280;47165;42.664;23.368;2023-05-23T12:11:15;94687.25;;;29.27;25.88
61292;BME280;47165;42.664;23.368;2023-05-23T12:13:41;94701.00;;;29.71;27.27
61292;BME280;47165;42.664;23.368;2023-05-23T12:16:07;94692.28;;;30.14;25.44
61292;BME280;47165;42.664;23.368;2023-05-23T12:18:32;94691.94;;;30.67;27.39
61292;BME280;47165;42.664;23.368;2023-05-23T12:21:01;94692.94;;;30.98;24.39
61292;BME280;47165;42.664;23.368;2023-05-23T12:23:28;94672.16;;;31.42;25.04
61292;BME280;47165;42.664;23.368;2023-05-23T12:25:55;94679.94;;;32.06;22.94
61292;BME280;47165;42.664;23.368;2023-05-23T12:28:35;94665.69;;;33.42;22.38
61292;BME280;47165;42.664;23.368;2023-05-23T12:31:20;94660.13;;;33.72;22.28
61292;BME280;47165;42.664;23.368;2023-05-23T12:33:46;94655.66;;;34.86;22.00
61292;BME280;47165;42.664;23.368;2023-05-23T12:36:13;94660.78;;;35.77;19.40
61292;BME280;47165;42.664;23.368;2023-05-23T12:38:39;94654.91;;;36.13;18.65
61292;BME280;47165;42.664;23.368;2023-05-23T12:41:10;94650.03;;;36.37;18.86
61292;BME280;47165;42.664;23.368;2023-05-23T12:43:39;94652.09;;;36.02;19.00
61292;BME280;47165;42.664;23.368;2023-05-23T12:46:06;94647.34;;;35.26;19.93
61292;BME280;47165;42.664;23.368;2023-05-23T12:48:32;94641.25;;;35.80;18.18
61292;BME280;47165;42.664;23.368;2023-05-23T12:50:58;94652.03;;;36.19;19.45
61292;BME280;47165;42.664;23.368;2023-05-23T12:53:25;94645.78;;;35.75;17.46
61292;BME280;47165;42.664;23.368;2023-05-23T12:55:51;94630.06;;;36.58;17.58
61292;BME280;47165;42.664;23.368;2023-05-23T12:58:16;94638.41;;;35.70;17.08
61292;BME280;47165;42.664;23.368;2023-05-23T13:00:42;94627.91;;;35.57;17.33
61292;BME280;47165;42.664;23.368;2023-05-23T13:03:07;94632.22;;;35.53;17.36
61292;BME280;47165;42.664;23.368;2023-05-23T13:05:33;94628.38;;;34.76;17.04